sensor_id;sensor_type;location;lat;lon;timestamp;P1;durP1;ratioP1;P2;durP2;ratioP2
45296;SDS011;31040;51.622;10.420;2022-10-31T00:02:17;6.38;;;4.32;;
45296;SDS011;31040;51.622;10.420;2022-10-31T00:04:44;8.25;;;4.65;;
45296;SDS011;31040;51.622;10.420;2022-10-31T00:07:12;7.65;;;4.70;;
45296;SDS011;31040;51.622;10.420;2022-10-31T00:09:39;7.18;;;4.80;;
45296;SDS011;31040;51.622;10.420;2022-10-31T00:12:06;8.35;;;4.57;;
45296;SDS011;31040;51.622;10.420;2022-10-31T00:14:34;8.07;;;4.60;;
45296;SDS011;31040;51.622;10.420;2022-10-31T00:17:01;7.90;;;4.68;;
45296;SDS011;31040;51.622;10.420;2022-10-31T00:19:29;6.63;;;4.30;;
45296;SDS011;31040;51.622;10.420;2022-10-31T00:21:56;8.10;;;4.22;;
45296;SDS011;31040;51.622;10.420;2022-10-31T00:24:24;9.07;;;4.47;;
45296;SDS011;31040;51.622;10.420;2022-10-31T00:26:51;7.65;;;4.45;;
45296;SDS011;31040;51.622;10.420;2022-10-31T00:29:18;7.65;;;5.15;;
45296;SDS011;31040;51.622;10.420;2022-10-31T00:31:49;10.57;;;4.50;;
45296;SDS011;31040;51.622;10.420;2022-10-31T00:34:16;9.65;;;4.10;;
45296;SDS011;31040;51.622;10.420;2022-10-31T00:36:44;6.45;;;4.60;;
45296;SDS011;31040;51.622;10.420;2022-10-31T00:39:11;11.18;;;4.60;;
45296;SDS011;31040;51.622;10.420;2022-10-31T00:41:38;10.30;;;4.40;;
45296;SDS011;31040;51.622;10.420;2022-10-31T00:44:06;8.27;;;4.43;;
45296;SDS011;31040;51.622;10.420;2022-10-31T00:46:33;11.35;;;5.50;;
45296;SDS011;31040;51.622;10.420;2022-10-31T00:49:00;11.40;;;4.22;;
45296;SDS011;31040;51.622;10.420;2022-10-31T00:51:29;7.00;;;4.00;;
45296;SDS011;31040;51.622;10.420;2022-10-31T00:53:56;7.00;;;3.97;;
45296;SDS011;31040;51.622;10.420;2022-10-31T00:56:23;5.20;;;4.00;;
45296;SDS011;31040;51.622;10.420;2022-10-31T00:58:51;6.22;;;4.13;;
45296;SDS011;31040;51.622;10.420;2022-10-31T01:01:18;9.02;;;3.88;;
45296;SDS011;31040;51.622;10.420;2022-10-31T01:03:46;5.15;;;4.20;;
45296;SDS011;31040;51.622;10.420;2022-10-31T01:06:13;4.97;;;4.30;;
45296;SDS011;31040;51.622;10.420;2022-10-31T01:08:42;8.93;;;4.55;;
45296;SDS011;31040;51.622;10.420;2022-10-31T01:11:10;6.68;;;4.78;;
45296;SDS011;31040;51.622;10.420;2022-10-31T01:13:38;7.35;;;4.25;;
45296;SDS011;31040;51.622;10.420;2022-10-31T01:16:07;9.90;;;4.70;;
45296;SDS011;31040;51.622;10.420;2022-10-31T01:18:34;8.40;;;4.35;;
45296;SDS011;31040;51.622;10.420;2022-10-31T01:23:29;8.93;;;5.57;;
45296;SDS011;31040;51.622;10.420;2022-10-31T01:28:54;8.80;;;3.72;;
45296;SDS011;31040;51.622;10.420;2022-10-31T01:31:26;7.85;;;4.68;;
45296;SDS011;31040;51.622;10.420;2022-10-31T01:33:54;9.80;;;4.38;;
45296;SDS011;31040;51.622;10.420;2022-10-31T01:38:56;10.27;;;4.20;;
45296;SDS011;31040;51.622;10.420;2022-10-31T01:41:26;5.72;;;3.92;;
45296;SDS011;31040;51.622;10.420;2022-10-31T01:46:24;9.52;;;4.90;;
45296;SDS011;31040;51.622;10.420;2022-10-31T01:48:53;7.85;;;3.60;;
45296;SDS011;31040;51.622;10.420;2022-10-31T01:51:23;7.57;;;4.97;;
45296;SDS011;31040;51.622;10.420;2022-10-31T01:53:52;8.13;;;5.20;;
45296;SDS011;31040;51.622;10.420;2022-10-31T01:56:22;8.02;;;4.45;;
45296;SDS011;31040;51.622;10.420;2022-10-31T01:58:52;11.27;;;4.53;;
45296;SDS011;31040;51.622;10.420;2022-10-31T02:01:21;8.43;;;4.65;;
45296;SDS011;31040;51.622;10.420;2022-10-31T02:03:49;6.20;;;4.28;;
45296;SDS011;31040;51.622;10.420;2022-10-31T02:06:19;12.13;;;5.15;;
45296;SDS011;31040;51.622;10.420;2022-10-31T02:08:48;9.07;;;4.60;;
45296;SDS011;31040;51.622;10.420;2022-10-31T02:11:16;10.18;;;4.00;;
45296;SDS011;31040;51.622;10.420;2022-10-31T02:13:43;7.78;;;4.28;;
45296;SDS011;31040;51.622;10.420;2022-10-31T02:16:10;6.25;;;3.67;;
45296;SDS011;31040;51.622;10.420;2022-10-31T02:18:38;5.70;;;4.28;;
45296;SDS011;31040;51.622;10.420;2022-10-31T02:21:16;4.72;;;3.22;;
45296;SDS011;31040;51.622;10.420;2022-10-31T02:23:57;7.05;;;3.53;;
45296;SDS011;31040;51.622;10.420;2022-10-31T02:29:03;6.80;;;3.72;;
45296;SDS011;31040;51.622;10.420;2022-10-31T02:31:41;5.43;;;3.65;;
45296;SDS011;31040;51.622;10.420;2022-10-31T02:34:16;11.88;;;3.55;;
45296;SDS011;31040;51.622;10.420;2022-10-31T02:39:18;4.38;;;3.67;;
45296;SDS011;31040;51.622;10.420;2022-10-31T02:41:52;7.05;;;3.63;;
45296;SDS011;31040;51.622;10.420;2022-10-31T02:49:40;7.25;;;3.83;;
45296;SDS011;31040;51.622;10.420;2022-10-31T02:52:29;10.05;;;3.78;;
45296;SDS011;31040;51.622;10.420;2022-10-31T02:55:39;6.22;;;4.15;;
45296;SDS011;31040;51.622;10.420;2022-10-31T02:57:57;7.93;;;4.45;;
45296;SDS011;31040;51.622;10.420;2022-10-31T03:00:26;8.07;;;4.30;;
45296;SDS011;31040;51.622;10.420;2022-10-31T03:16:15;10.32;;;3.92;;
45296;SDS011;31040;51.622;10.420;2022-10-31T03:18:53;5.53;;;3.40;;
45296;SDS011;31040;51.622;10.420;2022-10-31T03:21:22;6.05;;;3.40;;
45296;SDS011;31040;51.622;10.420;2022-10-31T03:23:53;6.13;;;3.30;;
45296;SDS011;31040;51.622;10.420;2022-10-31T03:26:21;7.20;;;4.13;;
45296;SDS011;31040;51.622;10.420;2022-10-31T03:28:50;7.25;;;3.15;;
45296;SDS011;31040;51.622;10.420;2022-10-31T03:31:19;15.15;;;3.58;;
45296;SDS011;31040;51.622;10.420;2022-10-31T03:33:50;8.85;;;3.58;;
45296;SDS011;31040;51.622;10.420;2022-10-31T03:36:18;4.88;;;3.47;;
45296;SDS011;31040;51.622;10.420;2022-10-31T03:38:47;3.25;;;2.92;;
45296;SDS011;31040;51.622;10.420;2022-10-31T03:41:21;5.40;;;3.22;;
45296;SDS011;31040;51.622;10.420;2022-10-31T03:44:00;7.75;;;3.50;;
45296;SDS011;31040;51.622;10.420;2022-10-31T03:46:29;7.78;;;5.13;;
45296;SDS011;31040;51.622;10.420;2022-10-31T03:48:56;7.07;;;3.30;;
45296;SDS011;31040;51.622;10.420;2022-10-31T03:54:04;7.07;;;3.65;;
45296;SDS011;31040;51.622;10.420;2022-10-31T03:56:46;7.28;;;3.75;;
45296;SDS011;31040;51.622;10.420;2022-10-31T03:59:20;5.57;;;3.28;;
45296;SDS011;31040;51.622;10.420;2022-10-31T04:01:49;4.35;;;3.67;;
45296;SDS011;31040;51.622;10.420;2022-10-31T04:04:18;6.35;;;4.43;;
45296;SDS011;31040;51.622;10.420;2022-10-31T04:06:46;9.82;;;3.58;;
45296;SDS011;31040;51.622;10.420;2022-10-31T04:09:14;6.65;;;3.33;;
45296;SDS011;31040;51.622;10.420;2022-10-31T04:11:45;6.82;;;3.95;;
45296;SDS011;31040;51.622;10.420;2022-10-31T04:14:16;7.50;;;4.18;;
45296;SDS011;31040;51.622;10.420;2022-10-31T04:16:43;5.15;;;3.35;;
45296;SDS011;31040;51.622;10.420;2022-10-31T04:19:11;8.52;;;4.60;;
45296;SDS011;31040;51.622;10.420;2022-10-31T04:21:39;4.43;;;3.22;;
45296;SDS011;31040;51.622;10.420;2022-10-31T04:24:09;7.60;;;4.10;;
45296;SDS011;31040;51.622;10.420;2022-10-31T04:26:37;7.15;;;4.40;;
45296;SDS011;31040;51.622;10.420;2022-10-31T04:29:04;4.97;;;3.72;;
45296;SDS011;31040;51.622;10.420;2022-10-31T04:31:32;7.53;;;4.38;;
45296;SDS011;31040;51.622;10.420;2022-10-31T04:33:59;6.25;;;3.33;;
45296;SDS011;31040;51.622;10.420;2022-10-31T04:36:27;5.57;;;3.65;;
45296;SDS011;31040;51.622;10.420;2022-10-31T04:38:57;8.50;;;3.90;;
45296;SDS011;31040;51.622;10.420;2022-10-31T04:41:25;6.55;;;4.10;;
45296;SDS011;31040;51.622;10.420;2022-10-31T04:43:52;4.97;;;3.67;;
45296;SDS011;31040;51.622;10.420;2022-10-31T04:46:20;6.53;;;4.35;;
45296;SDS011;31040;51.622;10.420;2022-10-31T04:48:47;5.93;;;3.65;;
45296;SDS011;31040;51.622;10.420;2022-10-31T04:51:15;6.90;;;4.10;;
45296;SDS011;31040;51.622;10.420;2022-10-31T04:53:42;5.03;;;4.10;;
45296;SDS011;31040;51.622;10.420;2022-10-31T04:56:10;7.20;;;3.78;;
45296;SDS011;31040;51.622;10.420;2022-10-31T04:58:37;8.02;;;4.40;;
45296;SDS011;31040;51.622;10.420;2022-10-31T05:01:05;6.25;;;3.45;;
45296;SDS011;31040;51.622;10.420;2022-10-31T05:03:33;7.05;;;4.72;;
45296;SDS011;31040;51.622;10.420;2022-10-31T05:06:03;5.80;;;4.75;;
45296;SDS011;31040;51.622;10.420;2022-10-31T05:08:30;7.20;;;4.05;;
45296;SDS011;31040;51.622;10.420;2022-10-31T05:11:01;8.10;;;3.72;;
45296;SDS011;31040;51.622;10.420;2022-10-31T05:13:30;6.88;;;3.53;;
45296;SDS011;31040;51.622;10.420;2022-10-31T05:15:57;5.40;;;3.60;;
45296;SDS011;31040;51.622;10.420;2022-10-31T05:18:25;7.32;;;4.47;;
45296;SDS011;31040;51.622;10.420;2022-10-31T05:20:52;8.07;;;4.90;;
45296;SDS011;31040;51.622;10.420;2022-10-31T05:23:20;8.93;;;5.20;;
45296;SDS011;31040;51.622;10.420;2022-10-31T05:25:47;6.20;;;3.90;;
45296;SDS011;31040;51.622;10.420;2022-10-31T05:28:14;6.45;;;3.80;;
45296;SDS011;31040;51.622;10.420;2022-10-31T05:30:42;18.85;;;4.90;;
45296;SDS011;31040;51.622;10.420;2022-10-31T05:33:09;7.45;;;4.25;;
45296;SDS011;31040;51.622;10.420;2022-10-31T05:35:37;6.88;;;4.38;;
45296;SDS011;31040;51.622;10.420;2022-10-31T05:38:04;8.43;;;4.38;;
45296;SDS011;31040;51.622;10.420;2022-10-31T05:40:31;7.82;;;4.80;;
45296;SDS011;31040;51.622;10.420;2022-10-31T05:42:59;6.18;;;4.40;;
45296;SDS011;31040;51.622;10.420;2022-10-31T05:45:27;8.52;;;4.10;;
45296;SDS011;31040;51.622;10.420;2022-10-31T05:47:55;6.88;;;4.03;;
45296;SDS011;31040;51.622;10.420;2022-10-31T05:50:24;7.60;;;4.03;;
45296;SDS011;31040;51.622;10.420;2022-10-31T05:52:55;4.70;;;4.05;;
45296;SDS011;31040;51.622;10.420;2022-10-31T05:55:23;6.00;;;3.90;;
45296;SDS011;31040;51.622;10.420;2022-10-31T05:57:52;6.68;;;4.65;;
45296;SDS011;31040;51.622;10.420;2022-10-31T06:00:20;11.43;;;5.03;;
45296;SDS011;31040;51.622;10.420;2022-10-31T06:02:48;6.85;;;3.90;;
45296;SDS011;31040;51.622;10.420;2022-10-31T06:05:15;8.57;;;5.15;;
45296;SDS011;31040;51.622;10.420;2022-10-31T06:07:43;5.78;;;4.38;;
45296;SDS011;31040;51.622;10.420;2022-10-31T06:10:10;7.03;;;4.53;;
45296;SDS011;31040;51.622;10.420;2022-10-31T06:12:38;8.30;;;5.85;;
45296;SDS011;31040;51.622;10.420;2022-10-31T06:15:07;8.27;;;5.93;;
45296;SDS011;31040;51.622;10.420;2022-10-31T06:17:35;7.85;;;4.32;;
45296;SDS011;31040;51.622;10.420;2022-10-31T06:20:03;7.60;;;4.65;;
45296;SDS011;31040;51.622;10.420;2022-10-31T06:22:31;6.75;;;4.70;;
45296;SDS011;31040;51.622;10.420;2022-10-31T06:24:58;7.60;;;4.97;;
45296;SDS011;31040;51.622;10.420;2022-10-31T06:27:26;7.15;;;4.03;;
45296;SDS011;31040;51.622;10.420;2022-10-31T06:29:54;7.07;;;4.75;;
45296;SDS011;31040;51.622;10.420;2022-10-31T06:32:21;6.78;;;4.63;;
45296;SDS011;31040;51.622;10.420;2022-10-31T06:34:49;6.22;;;4.38;;
45296;SDS011;31040;51.622;10.420;2022-10-31T06:37:16;10.07;;;5.75;;
45296;SDS011;31040;51.622;10.420;2022-10-31T06:39:44;9.70;;;4.97;;
45296;SDS011;31040;51.622;10.420;2022-10-31T06:42:11;54.63;;;11.70;;
45296;SDS011;31040;51.622;10.420;2022-10-31T06:44:39;9.93;;;5.60;;
45296;SDS011;31040;51.622;10.420;2022-10-31T06:47:07;23.45;;;6.30;;
45296;SDS011;31040;51.622;10.420;2022-10-31T06:49:34;10.18;;;5.95;;
45296;SDS011;31040;51.622;10.420;2022-10-31T06:52:01;8.77;;;5.70;;
45296;SDS011;31040;51.622;10.420;2022-10-31T06:54:29;8.55;;;6.30;;
45296;SDS011;31040;51.622;10.420;2022-10-31T06:56:57;11.02;;;5.88;;
45296;SDS011;31040;51.622;10.420;2022-10-31T06:59:24;6.45;;;4.88;;
45296;SDS011;31040;51.622;10.420;2022-10-31T07:01:51;30.85;;;8.40;;
45296;SDS011;31040;51.622;10.420;2022-10-31T07:04:19;13.52;;;6.60;;
45296;SDS011;31040;51.622;10.420;2022-10-31T07:06:47;10.07;;;6.25;;
45296;SDS011;31040;51.622;10.420;2022-10-31T07:09:17;8.95;;;7.30;;
45296;SDS011;31040;51.622;10.420;2022-10-31T07:11:44;13.23;;;6.47;;
45296;SDS011;31040;51.622;10.420;2022-10-31T07:14:12;12.13;;;6.93;;
45296;SDS011;31040;51.622;10.420;2022-10-31T07:16:39;16.63;;;7.63;;
45296;SDS011;31040;51.622;10.420;2022-10-31T07:19:06;19.73;;;9.25;;
45296;SDS011;31040;51.622;10.420;2022-10-31T07:21:34;12.82;;;8.45;;
45296;SDS011;31040;51.622;10.420;2022-10-31T07:24:01;14.25;;;9.15;;
45296;SDS011;31040;51.622;10.420;2022-10-31T07:26:29;17.70;;;9.20;;
45296;SDS011;31040;51.622;10.420;2022-10-31T07:28:56;13.82;;;8.70;;
45296;SDS011;31040;51.622;10.420;2022-10-31T07:31:25;30.00;;;10.15;;
45296;SDS011;31040;51.622;10.420;2022-10-31T07:33:53;19.48;;;10.63;;
45296;SDS011;31040;51.622;10.420;2022-10-31T07:36:20;22.08;;;9.70;;
45296;SDS011;31040;51.622;10.420;2022-10-31T07:38:47;19.67;;;10.85;;
45296;SDS011;31040;51.622;10.420;2022-10-31T07:41:15;19.05;;;9.95;;
45296;SDS011;31040;51.622;10.420;2022-10-31T07:43:42;21.10;;;11.27;;
45296;SDS011;31040;51.622;10.420;2022-10-31T07:46:10;19.75;;;12.05;;
45296;SDS011;31040;51.622;10.420;2022-10-31T07:48:37;22.90;;;11.88;;
45296;SDS011;31040;51.622;10.420;2022-10-31T07:51:07;19.17;;;12.35;;
45296;SDS011;31040;51.622;10.420;2022-10-31T07:53:35;19.50;;;11.38;;
45296;SDS011;31040;51.622;10.420;2022-10-31T07:56:02;17.60;;;11.20;;
45296;SDS011;31040;51.622;10.420;2022-10-31T07:58:29;17.60;;;11.85;;
45296;SDS011;31040;51.622;10.420;2022-10-31T08:00:57;23.38;;;13.27;;
45296;SDS011;31040;51.622;10.420;2022-10-31T08:03:25;16.25;;;10.07;;
45296;SDS011;31040;51.622;10.420;2022-10-31T08:05:52;25.90;;;12.63;;
45296;SDS011;31040;51.622;10.420;2022-10-31T08:08:20;23.52;;;12.55;;
45296;SDS011;31040;51.622;10.420;2022-10-31T08:10:47;18.38;;;11.70;;
45296;SDS011;31040;51.622;10.420;2022-10-31T08:13:15;24.30;;;11.77;;
45296;SDS011;31040;51.622;10.420;2022-10-31T08:15:42;23.35;;;12.40;;
45296;SDS011;31040;51.622;10.420;2022-10-31T08:18:12;20.83;;;11.98;;
45296;SDS011;31040;51.622;10.420;2022-10-31T08:20:40;20.70;;;12.00;;
45296;SDS011;31040;51.622;10.420;2022-10-31T08:23:08;21.20;;;11.85;;
45296;SDS011;31040;51.622;10.420;2022-10-31T08:25:36;28.83;;;12.75;;
45296;SDS011;31040;51.622;10.420;2022-10-31T08:28:04;19.10;;;12.13;;
45296;SDS011;31040;51.622;10.420;2022-10-31T08:30:33;19.65;;;11.88;;
45296;SDS011;31040;51.622;10.420;2022-10-31T08:33:02;22.85;;;12.05;;
45296;SDS011;31040;51.622;10.420;2022-10-31T08:35:30;16.10;;;11.38;;
45296;SDS011;31040;51.622;10.420;2022-10-31T08:37:58;21.30;;;11.90;;
45296;SDS011;31040;51.622;10.420;2022-10-31T08:40:26;17.90;;;11.77;;
45296;SDS011;31040;51.622;10.420;2022-10-31T08:42:55;24.00;;;11.57;;
45296;SDS011;31040;51.622;10.420;2022-10-31T08:45:23;22.25;;;11.52;;
45296;SDS011;31040;51.622;10.420;2022-10-31T08:47:51;18.60;;;11.48;;
45296;SDS011;31040;51.622;10.420;2022-10-31T08:50:18;22.35;;;10.27;;
45296;SDS011;31040;51.622;10.420;2022-10-31T08:52:52;16.60;;;11.05;;
45296;SDS011;31040;51.622;10.420;2022-10-31T08:55:35;17.17;;;10.35;;
45296;SDS011;31040;51.622;10.420;2022-10-31T08:58:03;22.63;;;11.43;;
45296;SDS011;31040;51.622;10.420;2022-10-31T09:00:31;22.02;;;10.85;;
45296;SDS011;31040;51.622;10.420;2022-10-31T09:03:00;15.02;;;10.55;;
45296;SDS011;31040;51.622;10.420;2022-10-31T09:05:28;18.25;;;10.95;;
45296;SDS011;31040;51.622;10.420;2022-10-31T09:07:56;25.67;;;12.48;;
45296;SDS011;31040;51.622;10.420;2022-10-31T09:10:24;20.42;;;10.80;;
45296;SDS011;31040;51.622;10.420;2022-10-31T09:12:56;16.75;;;10.77;;
45296;SDS011;31040;51.622;10.420;2022-10-31T09:15:24;33.38;;;13.25;;
45296;SDS011;31040;51.622;10.420;2022-10-31T09:17:52;17.52;;;11.23;;
45296;SDS011;31040;51.622;10.420;2022-10-31T09:20:20;14.77;;;9.82;;
45296;SDS011;31040;51.622;10.420;2022-10-31T09:22:48;15.85;;;10.15;;
45296;SDS011;31040;51.622;10.420;2022-10-31T09:25:22;13.88;;;10.25;;
45296;SDS011;31040;51.622;10.420;2022-10-31T09:27:49;18.13;;;10.38;;
45296;SDS011;31040;51.622;10.420;2022-10-31T09:30:17;17.90;;;10.73;;
45296;SDS011;31040;51.622;10.420;2022-10-31T09:32:44;15.75;;;9.98;;
45296;SDS011;31040;51.622;10.420;2022-10-31T09:35:12;16.20;;;9.32;;
45296;SDS011;31040;51.622;10.420;2022-10-31T09:37:39;14.82;;;8.93;;
45296;SDS011;31040;51.622;10.420;2022-10-31T09:40:07;16.65;;;9.15;;
45296;SDS011;31040;51.622;10.420;2022-10-31T09:50:26;15.35;;;8.80;;
45296;SDS011;31040;51.622;10.420;2022-10-31T09:53:01;15.65;;;9.02;;
45296;SDS011;31040;51.622;10.420;2022-10-31T09:55:40;19.52;;;9.82;;
45296;SDS011;31040;51.622;10.420;2022-10-31T09:58:13;16.85;;;10.52;;
45296;SDS011;31040;51.622;10.420;2022-10-31T10:00:42;17.05;;;11.13;;
45296;SDS011;31040;51.622;10.420;2022-10-31T10:06:29;18.08;;;11.48;;
45296;SDS011;31040;51.622;10.420;2022-10-31T10:08:37;19.13;;;11.10;;
45296;SDS011;31040;51.622;10.420;2022-10-31T10:26:20;19.80;;;11.10;;
45296;SDS011;31040;51.622;10.420;2022-10-31T10:28:53;19.95;;;11.65;;
45296;SDS011;31040;51.622;10.420;2022-10-31T10:31:23;19.98;;;11.30;;
45296;SDS011;31040;51.622;10.420;2022-10-31T10:36:40;16.65;;;10.93;;
45296;SDS011;31040;51.622;10.420;2022-10-31T10:39:11;17.60;;;10.70;;
45296;SDS011;31040;51.622;10.420;2022-10-31T10:41:42;17.02;;;10.65;;
45296;SDS011;31040;51.622;10.420;2022-10-31T10:44:11;18.98;;;11.00;;
45296;SDS011;31040;51.622;10.420;2022-10-31T10:51:58;20.63;;;12.60;;
45296;SDS011;31040;51.622;10.420;2022-10-31T10:59:55;18.33;;;11.05;;
45296;SDS011;31040;51.622;10.420;2022-10-31T11:02:24;23.05;;;11.88;;
45296;SDS011;31040;51.622;10.420;2022-10-31T11:04:52;22.08;;;12.95;;
45296;SDS011;31040;51.622;10.420;2022-10-31T11:07:21;21.73;;;12.55;;
45296;SDS011;31040;51.622;10.420;2022-10-31T11:09:49;19.73;;;11.85;;
45296;SDS011;31040;51.622;10.420;2022-10-31T11:12:19;20.23;;;13.32;;
45296;SDS011;31040;51.622;10.420;2022-10-31T11:14:50;24.77;;;13.77;;
45296;SDS011;31040;51.622;10.420;2022-10-31T11:17:34;21.15;;;13.48;;
45296;SDS011;31040;51.622;10.420;2022-10-31T11:20:49;25.98;;;14.35;;
45296;SDS011;31040;51.622;10.420;2022-10-31T11:23:02;22.20;;;14.15;;
45296;SDS011;31040;51.622;10.420;2022-10-31T11:25:31;25.75;;;14.57;;
45296;SDS011;31040;51.622;10.420;2022-10-31T11:28:02;22.90;;;12.82;;
45296;SDS011;31040;51.622;10.420;2022-10-31T11:30:30;24.50;;;15.35;;
45296;SDS011;31040;51.622;10.420;2022-10-31T11:32:58;30.40;;;15.23;;
45296;SDS011;31040;51.622;10.420;2022-10-31T11:35:26;25.25;;;13.65;;
45296;SDS011;31040;51.622;10.420;2022-10-31T11:38:04;25.75;;;15.70;;
45296;SDS011;31040;51.622;10.420;2022-10-31T11:40:32;26.48;;;15.18;;
45296;SDS011;31040;51.622;10.420;2022-10-31T11:43:00;19.60;;;12.18;;
45296;SDS011;31040;51.622;10.420;2022-10-31T11:45:33;24.67;;;14.10;;
45296;SDS011;31040;51.622;10.420;2022-10-31T11:48:12;23.15;;;13.63;;
45296;SDS011;31040;51.622;10.420;2022-10-31T11:50:42;27.38;;;13.68;;
45296;SDS011;31040;51.622;10.420;2022-10-31T11:53:15;21.58;;;13.63;;
45296;SDS011;31040;51.622;10.420;2022-10-31T11:55:43;26.35;;;15.13;;
45296;SDS011;31040;51.622;10.420;2022-10-31T11:58:22;19.52;;;12.55;;
45296;SDS011;31040;51.622;10.420;2022-10-31T12:00:53;23.63;;;13.30;;
45296;SDS011;31040;51.622;10.420;2022-10-31T12:05:49;18.52;;;12.45;;
45296;SDS011;31040;51.622;10.420;2022-10-31T12:08:19;17.23;;;11.27;;
45296;SDS011;31040;51.622;10.420;2022-10-31T12:16:04;16.58;;;10.38;;
45296;SDS011;31040;51.622;10.420;2022-10-31T12:23:55;23.13;;;11.80;;
45296;SDS011;31040;51.622;10.420;2022-10-31T12:53:41;16.38;;;9.27;;
45296;SDS011;31040;51.622;10.420;2022-10-31T12:58:56;20.02;;;10.07;;
45296;SDS011;31040;51.622;10.420;2022-10-31T13:01:35;18.05;;;9.45;;
45296;SDS011;31040;51.622;10.420;2022-10-31T13:04:30;16.42;;;8.65;;
45296;SDS011;31040;51.622;10.420;2022-10-31T13:07:02;14.90;;;9.30;;
45296;SDS011;31040;51.622;10.420;2022-10-31T13:09:35;16.35;;;8.80;;
45296;SDS011;31040;51.622;10.420;2022-10-31T13:12:07;15.23;;;7.82;;
45296;SDS011;31040;51.622;10.420;2022-10-31T13:14:46;16.98;;;10.00;;
45296;SDS011;31040;51.622;10.420;2022-10-31T13:17:31;13.15;;;8.63;;
45296;SDS011;31040;51.622;10.420;2022-10-31T13:20:46;14.98;;;8.95;;
45296;SDS011;31040;51.622;10.420;2022-10-31T13:22:50;25.08;;;8.95;;
45296;SDS011;31040;51.622;10.420;2022-10-31T13:25:20;14.90;;;9.60;;
45296;SDS011;31040;51.622;10.420;2022-10-31T13:27:59;16.42;;;8.95;;
45296;SDS011;31040;51.622;10.420;2022-10-31T13:30:36;16.38;;;8.70;;
45296;SDS011;31040;51.622;10.420;2022-10-31T13:33:08;17.98;;;8.27;;
45296;SDS011;31040;51.622;10.420;2022-10-31T13:38:10;14.57;;;7.75;;
45296;SDS011;31040;51.622;10.420;2022-10-31T13:40:47;16.15;;;8.48;;
45296;SDS011;31040;51.622;10.420;2022-10-31T13:45:55;13.40;;;7.47;;
45296;SDS011;31040;51.622;10.420;2022-10-31T13:48:36;11.25;;;7.10;;
45296;SDS011;31040;51.622;10.420;2022-10-31T13:51:06;13.90;;;7.97;;
45296;SDS011;31040;51.622;10.420;2022-10-31T13:58:35;14.45;;;8.18;;
45296;SDS011;31040;51.622;10.420;2022-10-31T14:03:37;11.70;;;7.65;;
45296;SDS011;31040;51.622;10.420;2022-10-31T14:06:35;10.98;;;7.78;;
45296;SDS011;31040;51.622;10.420;2022-10-31T14:09:03;9.38;;;7.40;;
45296;SDS011;31040;51.622;10.420;2022-10-31T14:11:31;15.48;;;7.70;;
45296;SDS011;31040;51.622;10.420;2022-10-31T14:14:02;13.45;;;8.68;;
45296;SDS011;31040;51.622;10.420;2022-10-31T14:16:30;12.30;;;7.63;;
45296;SDS011;31040;51.622;10.420;2022-10-31T14:23:54;16.23;;;7.70;;
45296;SDS011;31040;51.622;10.420;2022-10-31T14:28:56;12.57;;;7.68;;
45296;SDS011;31040;51.622;10.420;2022-10-31T14:37:38;12.73;;;7.75;;
45296;SDS011;31040;51.622;10.420;2022-10-31T14:46:34;12.18;;;7.22;;
45296;SDS011;31040;51.622;10.420;2022-10-31T14:52:05;11.65;;;7.47;;
45296;SDS011;31040;51.622;10.420;2022-10-31T14:54:53;10.88;;;7.75;;
45296;SDS011;31040;51.622;10.420;2022-10-31T14:57:44;14.38;;;7.85;;
45296;SDS011;31040;51.622;10.420;2022-10-31T15:00:42;10.68;;;7.78;;
45296;SDS011;31040;51.622;10.420;2022-10-31T15:10:22;13.23;;;8.38;;
45296;SDS011;31040;51.622;10.420;2022-10-31T15:16:39;13.93;;;8.52;;
45296;SDS011;31040;51.622;10.420;2022-10-31T15:19:15;14.95;;;8.55;;
45296;SDS011;31040;51.622;10.420;2022-10-31T15:21:54;14.82;;;8.95;;
45296;SDS011;31040;51.622;10.420;2022-10-31T15:24:37;14.05;;;9.98;;
45296;SDS011;31040;51.622;10.420;2022-10-31T15:27:09;14.55;;;9.68;;
45296;SDS011;31040;51.622;10.420;2022-10-31T15:29:57;14.18;;;9.73;;
45296;SDS011;31040;51.622;10.420;2022-10-31T15:32:32;21.98;;;9.90;;
45296;SDS011;31040;51.622;10.420;2022-10-31T15:35:19;15.18;;;9.48;;
45296;SDS011;31040;51.622;10.420;2022-10-31T15:38:02;22.58;;;11.70;;
45296;SDS011;31040;51.622;10.420;2022-10-31T15:41:04;15.77;;;9.65;;
45296;SDS011;31040;51.622;10.420;2022-10-31T15:43:43;16.85;;;10.23;;
45296;SDS011;31040;51.622;10.420;2022-10-31T15:46:13;15.93;;;10.05;;
45296;SDS011;31040;51.622;10.420;2022-10-31T15:48:55;15.05;;;9.00;;
45296;SDS011;31040;51.622;10.420;2022-10-31T15:51:31;14.80;;;10.35;;
45296;SDS011;31040;51.622;10.420;2022-10-31T15:54:14;16.27;;;9.45;;
45296;SDS011;31040;51.622;10.420;2022-10-31T15:56:52;19.08;;;11.93;;
45296;SDS011;31040;51.622;10.420;2022-10-31T15:59:34;19.05;;;10.70;;
45296;SDS011;31040;51.622;10.420;2022-10-31T16:02:08;14.50;;;10.48;;
45296;SDS011;31040;51.622;10.420;2022-10-31T16:04:55;13.38;;;9.88;;
45296;SDS011;31040;51.622;10.420;2022-10-31T16:07:30;17.40;;;10.35;;
45296;SDS011;31040;51.622;10.420;2022-10-31T16:10:03;17.85;;;11.38;;
45296;SDS011;31040;51.622;10.420;2022-10-31T16:12:49;17.02;;;10.63;;
45296;SDS011;31040;51.622;10.420;2022-10-31T16:15:54;18.15;;;10.45;;
45296;SDS011;31040;51.622;10.420;2022-10-31T16:18:42;20.33;;;11.95;;
45296;SDS011;31040;51.622;10.420;2022-10-31T16:21:35;20.85;;;12.13;;
45296;SDS011;31040;51.622;10.420;2022-10-31T16:24:16;22.67;;;12.50;;
45296;SDS011;31040;51.622;10.420;2022-10-31T16:26:52;17.33;;;11.85;;
45296;SDS011;31040;51.622;10.420;2022-10-31T16:29:41;23.02;;;11.88;;
45296;SDS011;31040;51.622;10.420;2022-10-31T16:38:55;21.75;;;12.07;;
45296;SDS011;31040;51.622;10.420;2022-10-31T16:41:32;20.15;;;12.48;;
45296;SDS011;31040;51.622;10.420;2022-10-31T16:44:14;22.15;;;12.80;;
45296;SDS011;31040;51.622;10.420;2022-10-31T16:49:43;19.40;;;12.98;;
45296;SDS011;31040;51.622;10.420;2022-10-31T16:52:14;17.83;;;11.65;;
45296;SDS011;31040;51.622;10.420;2022-10-31T16:54:41;22.83;;;12.25;;
45296;SDS011;31040;51.622;10.420;2022-10-31T16:57:18;17.60;;;11.77;;
45296;SDS011;31040;51.622;10.420;2022-10-31T16:59:48;17.42;;;12.07;;
45296;SDS011;31040;51.622;10.420;2022-10-31T17:02:17;20.20;;;11.98;;
45296;SDS011;31040;51.622;10.420;2022-10-31T17:04:45;19.60;;;12.70;;
45296;SDS011;31040;51.622;10.420;2022-10-31T17:07:17;18.85;;;12.55;;
45296;SDS011;31040;51.622;10.420;2022-10-31T17:09:45;20.23;;;12.60;;
45296;SDS011;31040;51.622;10.420;2022-10-31T17:12:14;21.25;;;12.50;;
45296;SDS011;31040;51.622;10.420;2022-10-31T17:14:44;20.23;;;14.52;;
45296;SDS011;31040;51.622;10.420;2022-10-31T17:17:13;23.75;;;13.75;;
45296;SDS011;31040;51.622;10.420;2022-10-31T17:19:40;20.35;;;13.25;;
45296;SDS011;31040;51.622;10.420;2022-10-31T17:22:09;25.17;;;12.65;;
45296;SDS011;31040;51.622;10.420;2022-10-31T17:24:37;24.13;;;12.40;;
45296;SDS011;31040;51.622;10.420;2022-10-31T17:27:05;17.75;;;11.23;;
45296;SDS011;31040;51.622;10.420;2022-10-31T17:29:32;18.38;;;12.43;;
45296;SDS011;31040;51.622;10.420;2022-10-31T17:32:00;20.67;;;12.13;;
45296;SDS011;31040;51.622;10.420;2022-10-31T17:34:30;18.60;;;11.63;;
45296;SDS011;31040;51.622;10.420;2022-10-31T17:36:58;18.92;;;11.98;;
45296;SDS011;31040;51.622;10.420;2022-10-31T17:39:25;17.52;;;12.43;;